createdAt,value
2022-12-18T00:01:24.854Z,66.89
2022-12-18T00:03:51.476Z,66.27
2022-12-18T00:06:18.075Z,67.16
2022-12-18T00:08:44.430Z,66.80
2022-12-18T00:11:10.827Z,66.42
2022-12-18T00:13:37.565Z,64.99
2022-12-18T00:16:04.260Z,64.65
2022-12-18T00:18:30.688Z,66.09
2022-12-18T00:20:57.074Z,66.56
2022-12-18T00:23:23.461Z,65.89
2022-12-18T00:25:49.856Z,65.86
2022-12-18T00:28:16.238Z,64.66
2022-12-18T00:30:42.619Z,65.02
2022-12-18T00:33:08.973Z,65.60
2022-12-18T00:35:35.358Z,67.29
2022-12-18T00:38:01.723Z,67.74
2022-12-18T00:40:28.054Z,68.41
2022-12-18T00:42:54.451Z,67.52
2022-12-18T00:45:20.791Z,65.69
2022-12-18T00:47:47.146Z,65.87
2022-12-18T00:50:13.543Z,65.21
2022-12-18T00:52:39.911Z,67.30
2022-12-18T00:55:06.683Z,67.70
2022-12-18T00:57:33.216Z,66.91
2022-12-18T00:59:59.567Z,65.76
2022-12-18T01:02:26.010Z,66.00
2022-12-18T01:04:52.460Z,66.51
2022-12-18T01:07:18.824Z,66.28
2022-12-18T01:09:45.382Z,65.51
2022-12-18T01:12:11.755Z,65.41
2022-12-18T01:14:38.166Z,66.02
2022-12-18T01:17:04.503Z,67.84
2022-12-18T01:19:30.891Z,68.12
2022-12-18T01:21:57.249Z,69.22
2022-12-18T01:24:23.605Z,67.31
2022-12-18T01:26:49.982Z,66.78
2022-12-18T01:29:16.315Z,68.69
2022-12-18T01:31:42.731Z,72.18
2022-12-18T01:34:09.194Z,69.19
2022-12-18T01:36:35.552Z,68.66
2022-12-18T01:39:01.889Z,66.52
2022-12-18T01:41:28.285Z,67.14
2022-12-18T01:43:54.689Z,67.00
2022-12-18T01:46:21.098Z,67.90
2022-12-18T01:48:47.479Z,68.59
2022-12-18T01:51:13.809Z,68.11
2022-12-18T01:53:40.601Z,70.21
2022-12-18T01:56:07.206Z,70.67
2022-12-18T01:58:33.533Z,69.23
2022-12-18T02:00:59.880Z,69.69
2022-12-18T02:03:26.392Z,68.30
2022-12-18T02:05:52.900Z,66.89
2022-12-18T02:08:19.245Z,66.20
2022-12-18T02:10:45.634Z,67.58
2022-12-18T02:13:11.999Z,66.99
2022-12-18T02:15:38.350Z,67.74
2022-12-18T02:18:04.715Z,68.02
2022-12-18T02:20:31.041Z,67.03
2022-12-18T02:22:57.391Z,66.80
2022-12-18T02:25:23.740Z,66.05
2022-12-18T02:27:50.078Z,66.06
2022-12-18T02:30:16.596Z,65.38
2022-12-18T02:32:42.968Z,64.38
2022-12-18T02:35:09.319Z,65.46
2022-12-18T02:37:35.686Z,67.36
2022-12-18T02:40:02.107Z,66.82
2022-12-18T02:42:28.474Z,67.93
2022-12-18T02:44:54.907Z,69.57
2022-12-18T02:47:21.293Z,69.85
2022-12-18T02:49:47.610Z,69.59
2022-12-18T02:52:13.954Z,70.49
2022-12-18T02:54:40.389Z,71.78
2022-12-18T02:57:06.816Z,71.21
2022-12-18T02:59:33.178Z,71.35
2022-12-18T03:02:00.103Z,70.82
2022-12-18T03:04:26.615Z,71.43
2022-12-18T03:06:52.959Z,69.88
2022-12-18T03:09:19.345Z,68.69
2022-12-18T03:11:45.699Z,67.27
2022-12-18T03:14:12.075Z,66.29
2022-12-18T03:16:38.504Z,65.30
2022-12-18T03:19:04.883Z,66.39
2022-12-18T03:21:31.219Z,66.75
2022-12-18T03:23:57.591Z,66.95
2022-12-18T03:26:23.927Z,65.79
2022-12-18T03:28:50.258Z,65.06
2022-12-18T03:31:16.618Z,64.32
2022-12-18T03:33:43.115Z,63.87
2022-12-18T03:36:09.594Z,64.18
2022-12-18T03:38:35.957Z,65.04
2022-12-18T03:41:02.354Z,66.16
2022-12-18T03:43:28.737Z,65.22
2022-12-18T03:45:55.131Z,63.97
2022-12-18T03:48:21.549Z,63.60
2022-12-18T03:50:47.867Z,63.25
2022-12-18T03:53:14.247Z,63.42
2022-12-18T03:55:40.607Z,64.23
2022-12-18T03:58:06.967Z,64.06
2022-12-18T04:00:33.343Z,62.78
2022-12-18T04:02:59.680Z,62.69
2022-12-18T04:05:26.018Z,63.90
2022-12-18T04:07:52.438Z,62.94
2022-12-18T04:10:18.773Z,62.29
2022-12-18T04:12:45.115Z,61.64
2022-12-18T04:15:11.610Z,62.03
2022-12-18T04:17:37.944Z,63.62
2022-12-18T04:20:04.268Z,64.26
2022-12-18T04:22:30.689Z,65.64
2022-12-18T04:24:56.997Z,66.61
2022-12-18T04:27:23.411Z,67.77
2022-12-18T04:29:49.780Z,65.75
2022-12-18T04:32:16.097Z,64.73
2022-12-18T04:34:42.428Z,64.31
2022-12-18T04:37:08.759Z,63.87
2022-12-18T04:39:35.062Z,61.76
2022-12-18T04:42:01.400Z,62.67
2022-12-18T04:44:27.755Z,62.75
2022-12-18T04:46:54.105Z,62.56
2022-12-18T04:49:20.919Z,61.92
2022-12-18T04:51:47.277Z,62.44
2022-12-18T04:54:13.607Z,62.50
2022-12-18T04:56:39.939Z,62.37
2022-12-18T04:59:06.295Z,62.75
2022-12-18T05:01:34.801Z,62.62
2022-12-18T05:04:01.643Z,62.60
2022-12-18T05:06:28.076Z,63.02
2022-12-18T05:08:54.408Z,62.64
2022-12-18T05:11:20.740Z,63.01
2022-12-18T05:13:47.133Z,64.25
2022-12-18T05:16:13.566Z,63.47
2022-12-18T05:18:39.916Z,63.35
2022-12-18T05:21:06.257Z,62.78
2022-12-18T05:23:32.599Z,64.30
2022-12-18T05:25:58.981Z,66.86
2022-12-18T05:28:25.374Z,66.52
2022-12-18T05:30:51.753Z,66.34
2022-12-18T05:33:18.160Z,68.32
2022-12-18T05:35:44.505Z,70.50
2022-12-18T05:38:10.857Z,69.83
2022-12-18T05:40:37.222Z,66.24
2022-12-18T05:43:03.578Z,65.32
2022-12-18T05:45:29.900Z,66.75
2022-12-18T05:47:56.292Z,65.78
2022-12-18T05:50:23.468Z,64.06
2022-12-18T05:52:50.474Z,64.46
2022-12-18T05:55:16.851Z,63.63
2022-12-18T05:57:43.207Z,62.34
2022-12-18T06:00:09.532Z,64.19
2022-12-18T06:02:35.939Z,63.01
2022-12-18T06:05:02.388Z,63.89
2022-12-18T06:07:28.719Z,62.96
2022-12-18T06:09:55.051Z,64.77
2022-12-18T06:12:21.469Z,64.41
2022-12-18T06:14:47.908Z,65.42
2022-12-18T06:17:14.240Z,64.95
2022-12-18T06:19:40.669Z,63.93
2022-12-18T06:22:06.999Z,63.08
2022-12-18T06:24:33.305Z,63.51
2022-12-18T06:26:59.659Z,63.83
2022-12-18T06:29:25.977Z,64.28
2022-12-18T06:31:52.377Z,64.14
2022-12-18T06:34:18.757Z,63.77
2022-12-18T06:36:45.090Z,63.40
2022-12-18T06:39:11.431Z,64.56
2022-12-18T06:41:37.932Z,65.64
2022-12-18T06:44:05.417Z,64.38
2022-12-18T06:46:31.728Z,64.76
2022-12-18T06:48:58.107Z,64.68
2022-12-18T06:51:24.443Z,64.11
2022-12-18T06:53:50.766Z,63.13
2022-12-18T06:56:17.374Z,63.67
2022-12-18T06:58:43.766Z,62.82
2022-12-18T07:01:10.246Z,62.52
2022-12-18T07:03:36.954Z,62.59
2022-12-18T07:06:03.806Z,62.74
2022-12-18T07:08:30.162Z,65.39
2022-12-18T07:10:56.680Z,63.59
2022-12-18T07:13:23.032Z,63.63
2022-12-18T07:15:49.595Z,65.15
2022-12-18T07:18:16.104Z,64.40
2022-12-18T07:20:42.409Z,63.16
2022-12-18T07:23:08.713Z,62.17
2022-12-18T07:25:35.065Z,63.29
2022-12-18T07:28:01.670Z,62.02
2022-12-18T07:30:27.964Z,61.36
2022-12-18T07:32:54.378Z,61.51
2022-12-18T07:35:24.770Z,61.99
2022-12-18T07:37:51.594Z,62.17
2022-12-18T07:40:17.935Z,62.50
2022-12-18T07:42:44.236Z,62.50
2022-12-18T07:45:10.532Z,62.57
2022-12-18T07:47:36.877Z,61.21
2022-12-18T07:50:03.174Z,61.91
2022-12-18T07:52:29.479Z,61.02
2022-12-18T07:54:55.837Z,60.38
2022-12-18T07:57:48.864Z,60.71
2022-12-18T08:00:08.488Z,62.43
2022-12-18T08:02:34.887Z,61.17
2022-12-18T08:05:01.907Z,61.95
2022-12-18T08:07:28.263Z,62.52
2022-12-18T08:09:54.567Z,62.88
2022-12-18T08:12:20.882Z,63.78
2022-12-18T08:14:47.212Z,62.15
2022-12-18T08:17:13.539Z,62.40
2022-12-18T08:19:39.838Z,63.16
2022-12-18T08:22:06.175Z,63.89
2022-12-18T08:24:35.510Z,63.75
2022-12-18T08:27:31.662Z,62.35
2022-12-18T08:29:48.206Z,61.87
2022-12-18T08:32:14.629Z,62.21
2022-12-18T08:34:40.968Z,62.78
2022-12-18T08:37:07.293Z,62.05
2022-12-18T08:39:33.619Z,60.98
2022-12-18T08:42:00.862Z,62.58
2022-12-18T08:44:29.451Z,60.63
2022-12-18T08:46:55.776Z,61.97
2022-12-18T08:49:22.083Z,62.43
2022-12-18T08:51:48.429Z,61.05
2022-12-18T08:54:14.795Z,62.48
2022-12-18T08:56:41.110Z,63.27
2022-12-18T08:59:07.444Z,64.28
2022-12-18T09:01:34.011Z,62.74
2022-12-18T09:04:01.743Z,62.25
2022-12-18T09:06:28.085Z,62.32
2022-12-18T09:08:54.398Z,61.75
2022-12-18T09:11:20.735Z,62.31
2022-12-18T09:13:47.057Z,62.63
2022-12-18T09:16:13.375Z,61.30
2022-12-18T09:18:40.058Z,58.98
2022-12-18T09:21:06.564Z,59.47
2022-12-18T09:23:32.917Z,57.61
2022-12-18T09:26:00.310Z,58.44
2022-12-18T09:28:26.742Z,57.88
2022-12-18T09:30:53.112Z,59.23
2022-12-18T09:33:19.530Z,61.41
2022-12-18T09:35:45.959Z,62.88
2022-12-18T09:38:12.307Z,61.79
2022-12-18T09:40:38.697Z,62.31
2022-12-18T09:43:05.087Z,62.33
2022-12-18T09:45:33.710Z,62.84
2022-12-18T09:48:00.081Z,62.96
2022-12-18T09:50:26.504Z,62.20
2022-12-18T09:52:52.867Z,62.06
2022-12-18T09:55:19.239Z,61.56
2022-12-18T09:57:45.624Z,62.62
2022-12-18T10:00:11.957Z,62.20
2022-12-18T10:02:38.429Z,64.50
2022-12-18T10:05:04.899Z,64.63
2022-12-18T10:07:31.247Z,62.13
2022-12-18T10:09:57.594Z,62.90
2022-12-18T10:12:24.027Z,62.99
2022-12-18T10:14:50.416Z,61.84
2022-12-18T10:17:16.812Z,59.64
2022-12-18T10:19:44.196Z,62.27
2022-12-18T10:22:10.566Z,61.04
2022-12-18T10:24:36.939Z,61.55
2022-12-18T10:27:03.415Z,61.68
2022-12-18T10:29:29.767Z,61.62
2022-12-18T10:31:56.151Z,61.46
2022-12-18T10:34:22.583Z,63.12
2022-12-18T10:36:49.215Z,61.65
2022-12-18T10:39:15.673Z,61.78
2022-12-18T10:41:42.090Z,63.89
2022-12-18T10:44:08.448Z,63.23
2022-12-18T10:46:34.873Z,61.07
2022-12-18T10:49:01.298Z,62.05
2022-12-18T10:51:27.683Z,60.58
2022-12-18T10:53:57.840Z,59.88
2022-12-18T10:56:24.244Z,60.60
2022-12-18T10:58:50.654Z,60.27
2022-12-18T11:01:17.159Z,61.39
2022-12-18T11:03:43.795Z,59.95
2022-12-18T11:06:10.308Z,61.35
2022-12-18T11:08:38.507Z,61.43
2022-12-18T11:11:06.807Z,62.75
2022-12-18T11:13:33.437Z,61.15
2022-12-18T11:15:59.835Z,61.43
2022-12-18T11:18:26.279Z,62.79
2022-12-18T11:20:58.650Z,62.11
2022-12-18T11:23:25.339Z,61.25
2022-12-18T11:25:51.724Z,64.44
2022-12-18T11:28:26.883Z,60.47
2022-12-18T11:30:53.279Z,59.47
2022-12-18T11:33:19.683Z,62.46
2022-12-18T11:35:46.039Z,62.65
2022-12-18T11:38:12.409Z,61.70
2022-12-18T11:40:41.308Z,62.44
2022-12-18T11:43:08.024Z,64.43
2022-12-18T11:45:34.919Z,63.27
2022-12-18T11:48:02.300Z,63.04
2022-12-18T11:50:28.818Z,64.38
2022-12-18T11:53:02.850Z,63.21
2022-12-18T11:55:32.170Z,63.73
2022-12-18T11:57:58.529Z,67.35
2022-12-18T12:00:24.899Z,65.17
2022-12-18T12:02:51.329Z,63.65
2022-12-18T12:05:17.812Z,64.78
2022-12-18T12:07:44.251Z,62.31
2022-12-18T12:10:10.603Z,61.87
2022-12-18T12:12:41.815Z,61.01
2022-12-18T12:15:11.547Z,60.82
2022-12-18T12:17:37.957Z,62.25
2022-12-18T12:20:04.413Z,62.96
2022-12-18T12:22:30.824Z,62.41
2022-12-18T12:24:57.204Z,62.61
2022-12-18T12:27:23.721Z,65.94
2022-12-18T12:29:50.131Z,67.78
2022-12-18T12:32:18.607Z,65.31
2022-12-18T12:34:45.168Z,65.67
2022-12-18T12:37:11.588Z,63.52
2022-12-18T12:39:37.981Z,64.51
2022-12-18T12:42:06.672Z,67.17
2022-12-18T12:44:33.052Z,67.81
2022-12-18T12:46:59.529Z,66.61
2022-12-18T12:49:26.112Z,65.95
2022-12-18T12:51:52.626Z,65.61
2022-12-18T12:54:19.092Z,64.45
2022-12-18T12:56:45.616Z,65.48
2022-12-18T12:59:12.037Z,64.19
2022-12-18T13:01:38.601Z,65.49
2022-12-18T13:04:05.290Z,65.57
2022-12-18T13:06:31.664Z,67.35
2022-12-18T13:08:59.787Z,68.64
2022-12-18T13:11:27.492Z,67.93
2022-12-18T13:13:54.187Z,63.26
2022-12-18T13:16:21.129Z,65.47
2022-12-18T13:18:47.671Z,65.25
2022-12-18T13:21:15.182Z,64.95
2022-12-18T13:23:47.684Z,65.79
2022-12-18T13:26:14.040Z,68.68
2022-12-18T13:28:41.656Z,66.65
2022-12-18T13:31:08.476Z,65.29
2022-12-18T13:33:35.007Z,63.77
2022-12-18T13:36:01.761Z,63.87
2022-12-18T13:38:29.470Z,63.23
2022-12-18T13:40:56.265Z,62.64
2022-12-18T13:43:22.647Z,61.95
2022-12-18T13:45:49.027Z,63.04
2022-12-18T13:48:15.408Z,62.70
2022-12-18T13:50:42.818Z,62.47
2022-12-18T13:53:09.223Z,65.80
2022-12-18T13:55:35.713Z,64.31
2022-12-18T13:58:02.097Z,66.85
2022-12-18T14:00:28.692Z,67.35
2022-12-18T14:02:55.128Z,66.16
2022-12-18T14:05:21.575Z,66.15
2022-12-18T14:07:51.298Z,64.17
2022-12-18T14:13:04.436Z,64.06
2022-12-18T14:15:32.338Z,64.08
2022-12-18T14:17:59.587Z,64.32
2022-12-18T14:20:25.950Z,64.75
2022-12-18T14:22:52.922Z,61.66
2022-12-18T14:25:19.450Z,61.08
2022-12-18T14:27:45.826Z,62.18
2022-12-18T14:30:12.204Z,60.77
2022-12-18T14:32:38.563Z,61.68
2022-12-18T14:35:05.092Z,62.38
2022-12-18T14:37:31.470Z,60.69
2022-12-18T14:39:57.925Z,62.00
2022-12-18T14:42:24.352Z,62.90
2022-12-18T14:45:12.393Z,63.06
2022-12-18T14:47:37.173Z,63.36
2022-12-18T14:50:03.601Z,66.84
2022-12-18T14:52:29.938Z,66.32
2022-12-18T14:54:56.369Z,64.51
2022-12-18T14:57:22.755Z,63.59
2022-12-18T14:59:49.150Z,62.26
2022-12-18T15:02:15.724Z,62.68
2022-12-18T15:04:44.201Z,62.13
2022-12-18T15:07:11.035Z,65.19
2022-12-18T15:09:37.479Z,64.96
2022-12-18T15:12:03.894Z,65.03
2022-12-18T15:14:30.244Z,64.97
2022-12-18T15:16:56.680Z,64.40
2022-12-18T15:19:23.064Z,65.13
2022-12-18T15:21:49.397Z,66.65
2022-12-18T15:24:15.790Z,67.92
2022-12-18T15:26:42.148Z,68.32
2022-12-18T15:29:12.745Z,65.34
2022-12-18T15:31:42.055Z,65.16
2022-12-18T15:34:08.435Z,65.34
2022-12-18T15:36:34.763Z,65.33
2022-12-18T15:39:05.350Z,64.05
2022-12-18T15:41:33.100Z,64.89
2022-12-18T15:44:01.640Z,63.97
2022-12-18T15:46:28.110Z,63.04
2022-12-18T15:49:01.202Z,62.48
2022-12-18T15:51:28.421Z,62.34
2022-12-18T15:53:54.805Z,63.03
2022-12-18T15:56:21.165Z,63.39
2022-12-18T15:58:47.531Z,64.70
2022-12-18T16:01:14.176Z,64.88
2022-12-18T16:03:41.092Z,63.97
2022-12-18T16:06:07.766Z,64.08
2022-12-18T16:08:34.385Z,64.26
2022-12-18T16:11:00.728Z,65.48
2022-12-18T16:13:27.169Z,65.50
2022-12-18T16:15:53.649Z,66.30
2022-12-18T16:18:23.007Z,66.09
2022-12-18T16:20:49.403Z,65.93
2022-12-18T16:23:15.739Z,66.01
2022-12-18T16:25:42.091Z,67.08
2022-12-18T16:28:08.496Z,66.85
2022-12-18T16:30:38.580Z,65.99
2022-12-18T16:33:07.618Z,67.54
2022-12-18T16:35:34.182Z,67.67
2022-12-18T16:38:03.607Z,66.54
2022-12-18T16:40:29.954Z,66.11
2022-12-18T16:42:56.312Z,65.16
2022-12-18T16:45:22.711Z,64.62
2022-12-18T16:47:51.376Z,65.23
2022-12-18T16:50:17.767Z,66.54
2022-12-18T16:52:44.127Z,68.10
2022-12-18T16:55:10.478Z,66.93
2022-12-18T16:57:36.851Z,66.17
2022-12-18T17:00:05.609Z,66.77
2022-12-18T17:02:32.532Z,67.07
2022-12-18T17:04:59.162Z,66.55
2022-12-18T17:07:25.554Z,66.76
2022-12-18T17:09:52.019Z,67.01
2022-12-18T17:12:18.469Z,66.93
2022-12-18T17:14:44.928Z,68.66
2022-12-18T17:17:26.662Z,67.76
2022-12-18T17:19:53.100Z,69.34
2022-12-18T17:22:19.442Z,67.92
2022-12-18T17:24:45.884Z,66.63
2022-12-18T17:27:12.281Z,67.46
2022-12-18T17:29:43.844Z,65.81
2022-12-18T17:32:15.082Z,65.49
2022-12-18T17:34:41.422Z,64.80
2022-12-18T17:37:07.808Z,64.48
2022-12-18T17:39:34.366Z,63.87
2022-12-18T17:42:00.772Z,64.26
2022-12-18T17:44:27.173Z,63.65
2022-12-18T17:46:53.679Z,65.40
2022-12-18T17:49:20.126Z,66.37
2022-12-18T17:51:50.521Z,67.15
2022-12-18T17:54:32.160Z,67.34
2022-12-18T17:56:58.587Z,68.06
2022-12-18T17:59:24.959Z,68.36
2022-12-18T18:01:51.473Z,69.37
2022-12-18T18:04:18.558Z,70.01
2022-12-18T18:06:44.983Z,69.00
2022-12-18T18:09:16.685Z,69.47
2022-12-18T18:11:43.420Z,69.66
2022-12-18T18:14:10.049Z,69.86
2022-12-18T18:16:36.591Z,69.39
2022-12-18T18:19:03.047Z,69.29
2022-12-18T18:21:29.406Z,68.36
2022-12-18T18:23:56.465Z,68.60
2022-12-18T18:26:22.808Z,69.37
2022-12-18T18:28:52.455Z,69.36
2022-12-18T18:31:19.237Z,69.22
2022-12-18T18:33:45.618Z,69.71
2022-12-18T18:36:11.974Z,70.25
2022-12-18T18:38:38.464Z,71.06
2022-12-18T18:41:04.836Z,69.98
2022-12-18T18:43:32.711Z,69.47
2022-12-18T18:45:59.160Z,70.19
2022-12-18T18:48:25.554Z,70.88
2022-12-18T18:50:54.375Z,70.39
2022-12-18T18:53:20.747Z,70.89
2022-12-18T18:55:59.090Z,70.94
2022-12-18T18:58:33.603Z,68.27
2022-12-18T19:01:00.104Z,68.23
2022-12-18T19:03:26.748Z,69.99
2022-12-18T19:05:53.233Z,68.14
2022-12-18T19:08:19.584Z,67.40
2022-12-18T19:10:45.932Z,66.07
2022-12-18T19:13:12.319Z,66.82
2022-12-18T19:15:38.695Z,67.60
2022-12-18T19:18:05.097Z,68.90
2022-12-18T19:20:31.713Z,69.95
2022-12-18T19:22:58.092Z,73.42
2022-12-18T19:25:30.697Z,72.24
2022-12-18T19:28:07.172Z,71.34
2022-12-18T19:30:41.686Z,70.34
2022-12-18T19:33:34.038Z,70.02
2022-12-18T19:35:54.548Z,67.04
2022-12-18T19:38:21.085Z,66.06
2022-12-18T19:40:47.520Z,65.56
2022-12-18T19:43:13.929Z,65.14
2022-12-18T19:45:40.398Z,64.89
2022-12-18T19:48:06.757Z,64.48
2022-12-18T19:50:33.152Z,64.03
2022-12-18T19:53:00.783Z,64.55
2022-12-18T19:55:27.363Z,65.09
2022-12-18T19:57:59.015Z,65.30
2022-12-18T20:00:25.665Z,67.29
2022-12-18T20:02:55.359Z,68.75
2022-12-18T20:05:31.938Z,69.87
2022-12-18T20:07:59.004Z,68.25
2022-12-18T20:10:31.580Z,67.86
2022-12-18T20:12:58.027Z,67.43
2022-12-18T20:15:25.573Z,68.94
2022-12-18T20:17:59.772Z,68.71
2022-12-18T20:20:28.726Z,68.56
2022-12-18T20:23:02.462Z,67.98
2022-12-18T20:25:29.068Z,68.57
2022-12-18T20:28:20.410Z,70.02
2022-12-18T20:30:48.120Z,71.30
2022-12-18T20:33:14.456Z,71.51
2022-12-18T20:35:40.791Z,69.95
2022-12-18T20:38:07.974Z,68.45
2022-12-18T20:40:35.395Z,68.84
2022-12-18T20:43:01.788Z,70.19
2022-12-18T20:45:28.181Z,69.34
2022-12-18T20:47:54.550Z,69.14
2022-12-18T20:50:20.892Z,69.17
2022-12-18T20:52:47.275Z,69.98
2022-12-18T20:55:13.616Z,68.86
2022-12-18T20:57:39.970Z,67.46
2022-12-18T21:00:06.336Z,68.72
2022-12-18T21:02:32.878Z,70.30
2022-12-18T21:04:59.359Z,68.64
2022-12-18T21:07:25.795Z,69.01
2022-12-18T21:09:52.154Z,67.87
2022-12-18T21:12:18.508Z,67.19
2022-12-18T21:14:44.904Z,66.08
2022-12-18T21:17:11.404Z,66.93
2022-12-18T21:19:37.782Z,65.34
2022-12-18T21:22:04.525Z,65.57
2022-12-18T21:24:32.999Z,66.12
2022-12-18T21:26:59.490Z,68.90
2022-12-18T21:29:26.095Z,69.25
2022-12-18T21:31:52.427Z,70.74
2022-12-18T21:34:18.792Z,70.18
2022-12-18T21:36:45.146Z,69.31
2022-12-18T21:39:12.536Z,69.13
2022-12-18T21:41:42.297Z,69.39
2022-12-18T21:44:08.973Z,71.27
2022-12-18T21:46:35.398Z,71.85
2022-12-18T21:49:01.942Z,70.65
2022-12-18T21:51:28.327Z,67.27
2022-12-18T21:53:54.682Z,66.44
2022-12-18T21:56:21.030Z,66.11
2022-12-18T21:58:56.800Z,67.42
2022-12-18T22:01:23.594Z,72.05
2022-12-18T22:03:50.113Z,73.96
2022-12-18T22:06:19.622Z,72.46
2022-12-18T22:08:45.991Z,70.89
2022-12-18T22:11:12.422Z,68.79
2022-12-18T22:13:39.012Z,66.97
2022-12-18T22:16:05.390Z,68.56
2022-12-18T22:18:31.860Z,70.09
2022-12-18T22:20:58.218Z,69.17
2022-12-18T22:23:24.547Z,73.87
2022-12-18T22:25:50.899Z,72.30
2022-12-18T22:28:17.216Z,68.30
2022-12-18T22:30:43.568Z,67.74
2022-12-18T22:33:09.979Z,67.53
2022-12-18T22:35:36.336Z,67.82
2022-12-18T22:38:02.667Z,70.05
2022-12-18T22:40:29.034Z,73.36
2022-12-18T22:42:55.554Z,75.14
2022-12-18T22:45:21.912Z,73.00
2022-12-18T22:47:48.287Z,71.81
2022-12-18T22:50:14.624Z,72.50
2022-12-18T22:52:40.992Z,75.73
2022-12-18T22:55:07.360Z,73.45
2022-12-18T22:57:33.757Z,72.87
2022-12-18T23:00:01.012Z,70.71
2022-12-18T23:02:27.524Z,70.92
2022-12-18T23:04:53.949Z,70.55
2022-12-18T23:07:20.301Z,71.15
2022-12-18T23:09:46.775Z,71.02
2022-12-18T23:12:14.679Z,71.69
2022-12-18T23:14:41.032Z,72.60
2022-12-18T23:17:07.421Z,70.71
2022-12-18T23:19:33.743Z,72.65
2022-12-18T23:22:00.096Z,74.05
2022-12-18T23:24:26.463Z,70.25
2022-12-18T23:26:52.793Z,67.97
2022-12-18T23:29:19.130Z,66.84
2022-12-18T23:31:45.585Z,66.85
2022-12-18T23:34:11.960Z,66.53
2022-12-18T23:36:46.307Z,66.76
2022-12-18T23:39:28.565Z,67.18
2022-12-18T23:41:56.294Z,66.28
2022-12-18T23:44:22.696Z,65.87
2022-12-18T23:46:49.131Z,67.62
2022-12-18T23:49:15.577Z,66.20
2022-12-18T23:51:41.949Z,66.58
2022-12-18T23:54:09.746Z,66.77
2022-12-18T23:56:36.122Z,65.94
2022-12-18T23:59:02.493Z,65.42
